Weather


ICAO METAR
KAGC KAGC 152253Z 21010G17KT 10SM OVC018 M03/M06 A3013 RMK AO2 SLP224 T10281061
KBUF KBUF 152254Z 21014KT 7SM OVC014 M02/M05 A3004 RMK AO2 SLP184 T10221050
KCLE KCLE 152251Z 20009KT 6SM -SN OVC010 M04/M06 A3016 RMK AO2 SNB49 SLP222 P0000 I1000 T10441061
KDTW KDTW 152253Z 22014KT 6SM HZ OVC015 M03/M06 A3007 RMK AO2 SLP191 T10281061
KERI KERI 152251Z 20019G23KT 6SM HZ OVC020 M04/M08 A3011 RMK AO2 SLP206 T10391083
KPIT KPIT 152251Z 21009KT 10SM OVC018 M02/M06 A3013 RMK AO2 SLP227 T10221061
KROC KROC 152254Z 23012KT 7SM -SN OVC013 M01/M03 A3006 RMK AO2 FZDZE42SNE11B42 SLP190 I1000 T10111033 PNO $